Kobuk Valley National Park, AK

4:43 AM AKDT op 29 juli 2014 (GMT -0800)
Selawik (PASK) Hoogte 26 ft | 66.60 °N, 159.99 °W | Change Station

Current weather conditions updated 7 minutes ago

Clear
Helder
48 °F
Voelt als 48 °F
N
6
Wind Variabel Wind van NNW

Er wordt verwacht dat het vandaag koeler is dan gisteren.

Vandaag
Hoog -- | Laag -- °F
--% Kans op neerslag
Gisteren
Hoog -- | Laag -- °F
Precip. -- inches
4:50 AM 0:40 AM
Wassende halvemaan, 6% visible
Druk 30.26 inches
Zicht 5.0 mijlen
Wolken Helder
Dauwpunt 39 °F
Vochtigheid 71%
Neerslag 0.00 inches
Dikte sneeuw Niet beschikbaar.
UV 0 van de 12
Pollen Niet beschikbaar.
Luchtkwaliteit Niet beschikbaar.
Flu Activity Niet beschikbaar.
METAR PASK 291236Z AUTO 33005KT 5SM CLR 09/04 A3026 RMK AO1

More Conditions Fewer Conditions

Druk 30.26 inches
Zicht 5.0 mijlen
Wolken Helder
Dauwpunt 39 °F
Vochtigheid 71%
Neerslag 0.00 inches
Dikte sneeuw Niet beschikbaar.
UV 0 van de 12
Pollen Niet beschikbaar.
Luchtkwaliteit Niet beschikbaar.
Flu Activity Niet beschikbaar.
METAR PASK 291236Z AUTO 33005KT 5SM CLR 09/04 A3026 RMK AO1

More Conditions Fewer Conditions

10-Day Weather Forecast

Almanac

Astronomie

Jul. 29, 2014 Opkomst Ondergang
Werkelijke tijd 4:50 AM AKDT 12:40 AM AKDT
Burgerlijke schemering Sun does not rise Sun does not rise
Nautische schemering Sun does not rise Sun does not rise
Astronomische schemering Sun does not rise Sun does not rise
Maan 9:47 AM AKDT 11:38 PM AKDT
Golflengte van het zichtbare licht 24h 00m
Daglengte
19h 49m
Tomorrow will be 9m 56s shorter.
Wassende halvemaan, 6% of the Moon is Illuminated
Vandaag
Wassende halvemaan
aug 3
Eerste kwartier
aug 10
Volle maan
aug 17
Laatste kwartier
aug 25
Nieuw

Extremen vandaag

State Highs State Lows

Community

WunderPhotos

Upload Photos

1,738,705 foto’s ge-upload!

Nearby

Luchtkwaliteit

Not available.

Dikte sneeuw

Station Depth Geometrische hoogte
Rocky Point 2 in 500 ft
Gobblers Knob 0 in 2030 ft
Coldfoot 0 in 1040 ft
Atigun Pass 0 in 4800 ft
Imnaviat Creek 0 in 3050 ft

Aardbevingen

Stad Distance Mag. Time & Date
No recent earthquake activity has been reported nearby.
Minimum magnitude displayed is 2.5.

Watertemperatuur langs de kust

Plaats Temperatuur
Geen meldingen van stations

Nabije weerstations

Geen persoonlijke weerstations in dit gebied.